PNYC

 

 

Pacific Northwest Yearling Challenge - Loft Fly

Station: Inventory - T Race

Distance: 1 Miles    

Release: 11-Feb-2024 10:00

Weather Release:    Arrival:

Wind at Release:     Wind at Arrival:

Temp at Release: °    Temp at Arrival: °

Lofts: 106

Birds: 435

Clocked: 420

Good Luck to Everyone!
Drops Pos Breeder Pigeon Name Color Sex Team Ent Arrival Speed To Win Elg PdSilverGold
1 De La O-Fernandez - CA 3307-AU23-SWI BB H 1 1 10:34:02.33 51.7056 00:00:00 Yes
2 Devore Loft - GA 0398-AU23-NA Empire BC C 1 1 10:34:07.09 51.5854 00:00:05 Yes
3 Pelican Loft - ID 2332-AU23-PELI BBWF H 1 1 10:34:09.50 51.5245 00:00:07 Yes
4 Lindbergh Flyers - MO 3858-AU23-NERP BC C 1 1 10:34:13.24 51.4309 00:00:11 Yes
5 Paul Meyer - WA 3346-AU23-TCW LIFE IKON HOFKEN BC H 1 1 10:34:22.49 51.2000 00:00:20 Yes
6 Spoiled Sa Amo - CA 11291-AU23-VITA DKCK C 1 1 10:34:58.97 50.3102 00:00:57 Yes
7 Huan Loft - NC 3081-AU23-RDU BB C 2 1 10:35:00.42 50.2754 00:00:58 Yes
8 De La O-Fernandez - CA 3331-AU23-SWI BB C 1 2 10:35:05.20 50.1615 00:01:03 Yes
9 Devore Loft - GA 6657-AU23-DEVO Leprechaun BB C 1 2 10:35:05.60 50.1517 00:01:03 Yes
10 Lowies Loft - ID 0389-AU23-LOWI BB H 1 1 10:36:14.27 48.5678 00:02:12 Yes
11 De La O-Fernandez - CA 3340-AU23-SWI PEN C 1 3 10:36:22.73 48.3798 00:02:20 Yes
12 Geos Collection - CA 0030-IF23-GEO BB H 1 1 10:36:31.51 48.1857 00:02:29 Yes
13 FAmPFA - IL 0727-AU23-VITA BC C 1 1 10:36:34.17 48.1275 00:02:32 Yes
14 Huan Loft - NC 3053-AU23-RDU BB C 1 2 10:36:35.45 48.0993 00:02:33 Yes
15 Tian Loft - FL 80056-AU23-ARPU BB C 2 1 10:36:37.14 48.0625 00:02:35 Yes
16 Huan Loft - NC 3052-AU23-RDU BB C 1 3 10:36:38.87 48.0247 00:02:37 Yes
17 Honey Farm Loft - TN 3650-IF23-ORPC BB C 1 1 10:36:40.23 47.9950 00:02:38 Yes
18 Lou Coletta - CA 0083-AU23-LCOL BB C 1 1 10:36:41.96 47.9571 00:02:40 Yes
19 Montejano's Loft - TN 3477-IF23-ORPC BB H 2 1 10:36:43.73 47.9188 00:02:41 Yes
20 Double J G Loft - ID 0623-AU23-IDA BBWF C 1 1 10:36:44.04 47.9120 00:02:42 Yes
21 Lowies Loft - ID 0304-AU23-LOWI BB C 1 2 10:37:04.19 47.4780 00:03:02 Yes
22 Joe Zarachowicz - MD 0418-IF23-CCC BB H 1 1 10:37:04.21 47.4775 00:03:02 Yes
23 High Desert Yearling Classic - ID 0699-AU23-KVL BB C 1 1 10:37:18.92 47.1656 00:03:17 Yes
24 G S P Loft - Partridge - CA 0149-AU23-GSP BB C 1 1 10:37:56.66 46.3837 00:03:54 Yes
25 Stealth Loft - ID 23842-AU23-RMR BKWF C 1 1 10:37:58.67 46.3428 00:03:56 Yes
26 Xfactord - OK 2934-AU23-ARPU Xpress BC C 1 1 10:37:58.92 46.3377 00:03:57 Yes
27 Geneseeloft - WA 0310-AU23-GSC BCPI C 1 1 10:37:59.99 46.3158 00:03:58 Yes
28 Jd And Em - CA 72293-AU23-ARPU BC H 1 1 10:38:00.22 46.3113 00:03:58 Yes
29 Montejano's Loft - TN 3522-IF23-ORPC BC C 1 2 10:38:13.73 46.0385 00:04:11 Yes
30 Bill and Danny - UT 1602-IF23-FSC BB H 2 1 10:38:14.49 46.0231 00:04:12 Yes
31 Joe Zarachowicz - MD 0499-IF23-CCC BBWF H 2 2 10:38:53.31 45.2574 00:04:51 Yes
32 Rueter Family Loft - OR 2144-AU23-CORP BB H 1 1 10:38:54.91 45.2266 00:04:53 Yes
33 De La O-Fernandez - CA 3308-AU23-SWI BB C 2 4 10:38:57.33 45.1796 00:04:55 Yes
34 Barry & Shawnie - MI 0186-IF23-JRC BKWF C 4 1 10:38:57.56 45.1751 00:04:55 Yes
35 Double J G Loft - ID 0616-AU23-IDA BC C 1 2 10:39:04.20 45.0474 00:05:02 Yes
36 VMBY Loft - CA 0056-AU23-VMBY BB H 1 1 10:39:12.62 44.8861 00:05:10 Yes
37 Lou Coletta - CA 0049-AU23-LCOL BB C 1 2 10:39:17.73 44.7888 00:05:15 Yes
38 Keyways - ID 0384-AU23-KEYS 9x565 BB H 1 1 10:39:20.34 44.7391 00:05:18 Yes
39 Hollywood Lou Loft - FL 1064-AU23-HOLL BB C 2 1 10:39:23.19 44.6854 00:05:21 Yes
40 J S R Loft - UT 0014-AU23-JSR BCWF C 2 1 10:40:23.79 43.5681 00:06:21 Yes
41 Montejano's Loft - TN 3599-IF23-ORPC RC H 2 3 10:40:30.42 43.4491 00:06:28 Yes
42 J S R Loft - UT 0021-AU23-JSR PNWF C 2 2 10:40:30.91 43.4405 00:06:29 Yes
43 El Vicho - IN 2506-AU23-ELVI BCWF H 1 1 10:40:32.92 43.4046 00:06:31 Yes
44 Redlegs Loft - PA 37214-AU23-JEDD Nrpl X Bieche 🐦 BC C 1 1 10:40:34.29 43.3800 00:06:32 Yes
45 Taylor Loft - NM 23357-AU23-NMRP 830 BB H 1 1 10:40:36.38 43.3428 00:06:34 Yes
46 RDP Loft - IL 1273-AU23-EHC BB H 1 1 10:41:54.93 41.9892 00:07:53 Yes
47 Chick Clayton - ID 0624-AU23-IDA BC H 1 1 10:42:00.11 41.9029 00:07:58 Yes
48 Rueter Family Loft - OR 2026-AU23-CORP BB H 1 2 10:42:34.71 41.3354 00:08:32 Yes
49 Racing Pigeon Mall - WA 0358-AU23-RPM BC C 1 1 10:42:39.80 41.2532 00:08:37 Yes
50 FOB Greek - RI 0292-AU23-RI SPARTAN WARRIOR 2457X 899 BCPI C 1 1 10:42:49.65 41.0951 00:08:47 Yes
51 Tian Loft - FL 36499-AU23-ARPU BB H 1 2 10:42:49.88 41.0914 00:08:48 Yes
52 Rebato Family Loft - MO 3034-AU23-FOYS BC H 1 1 10:42:56.01 40.9936 00:08:54 Yes
53 0 MAKO LOFT - TX 0937-AU23-PB Midnight Bisou BLCK H 0 1 10:43:08.64 40.7936 00:09:06 Yes
54 Callahan Loft - MO 0494-AU23-AA BB H 1 1 10:43:18.45 40.6395 00:09:16 Yes
55 Dashing Bandit - TX 23373-AU23-NBC BBT H 1 1 10:43:19.84 40.6179 00:09:18 Yes
- !-AU23-AUDI-2258-! 10:43:21.90 40.5857
56 RDP Loft - IL 1272-AU23-EHC BBWF C 1 2 10:44:17.38 39.7382 00:10:15 Yes
57 Geneseeloft - WA 0325-AU23-GSC BC C 1 2 10:44:25.66 39.6150 00:10:23 Yes
58 Paul Meyer - WA 3326-AU23-TCW DAKOTA HOFKEN BC H 1 2 10:44:28.64 39.5707 00:10:26 Yes
59 Rebato Family Loft - MO 3033-AU23-FOYS BB C 1 2 10:44:34.59 39.4825 00:10:32 Yes
60 Refried Dreams - AZ 0694-AU23-PSC Apple Sauce / Andy BC H 1 1 10:44:40.65 39.3934 00:10:38 Yes
61 Devore Loft - GA 6684-AU23-DEVO Babel CHOC C 2 3 10:44:41.57 39.3799 00:10:39 Yes
62 0 MAKO LOFT - TX 0955-AU23-PB TeXas Chrome BC H 0 2 10:44:50.47 39.2495 00:10:48 Yes
63 Double J G Loft - ID 0619-AU23-IDA BB H 2 3 10:44:53.39 39.2070 00:10:51 Yes
64 Jessie Morales - OH 6613-AU23-FOYS BC C 1 1 10:44:56.80 39.1575 00:10:54 Yes
65 Mari Loft - MA 0494-IF23-BRA BC C 1 1 10:45:03.57 39.0593 00:11:01 Yes
66 VWL - SC 73414-AU23-ARPU GRIZ C 1 1 10:45:38.28 38.5644 00:11:36 Yes
67 Olson Family Loft - MN 2375-AU23-OFL BB C 1 1 10:45:41.52 38.5186 00:11:39 Yes
68 A-Lin Loft - ME 0983-AU23-IPBB DKCK H 1 1 10:45:47.84 38.4302 00:11:46 Yes
69 Trapper Bob Loft - MO 0549-AU23-TRAP BC H 1 1 10:45:48.22 38.4249 00:11:46 Yes
70 TBBL of Houston TX - TX 0164-AU23-TBBL Bounce Bounce Baby DK B 1 1 10:46:07.06 38.1632 00:12:05 Yes
71 J S R Loft - UT 0027-AU23-JSR DKCK C 1 3 10:46:08.28 38.1464 00:12:06 Yes
72 Redlegs Loft - PA 37227-AU23-JEDD Idaho Boy 🐦🐦🐦 BB C 1 2 10:46:33.80 37.7980 00:12:31 Yes
73 Callahan Loft - MO 34832-AU23-AA BB C 1 2 10:46:48.76 37.5967 00:12:46 Yes
74 Oakland-Rosa Loft - CA 23107-AU23-OAK BB C 1 1 10:46:50.53 37.5729 00:12:48 Yes
75 Flip A Bean And Two Crackers - CA 3366-AU23-SMR 2236x604 BC C 1 1 10:46:57.24 37.4835 00:12:55 Yes
76 Charlie Barbiere - NJ 1872-IF23-BSC BB C 1 1 10:47:18.84 37.1983 00:13:17 Yes
77 Huan Loft - NC 3050-AU23-RDU BB C 1 4 10:47:21.04 37.1695 00:13:19 Yes
78 FOB Greek - RI 0949-AU23-RI Weekend Warrior (597~1700 BC C 1 2 10:47:24.54 37.1236 00:13:22 Yes
79 Trapper Bob Loft - MO 0540-AU23-TRAP BB C 1 2 10:47:26.52 37.0978 00:13:24 Yes
80 Keyways - ID 0383-AU23-KEYS 9 X 565 BB C 1 2 10:47:43.70 36.8754 00:13:41 Yes
81 Maricutu Family Loft - WA 0383-AU23-SKI BCWF C 1 1 10:47:47.65 36.8246 00:13:45 Yes
82 Dean Farmer - IL 0021-AU23-DEAN BB C 1 1 10:47:47.83 36.8223 00:13:45 Yes
83 Pelican Loft - ID 2359-AU23-PELI BCWF C 1 2 10:47:48.20 36.8175 00:13:46 Yes
84 Postlofts - ID 3713-AU23-GEM BBWF C 1 1 10:47:48.82 36.8096 00:13:46 Yes
85 J S R Loft - UT 0031-AU23-JSR BBWF C 2 4 10:47:48.90 36.8085 00:13:47 Yes
86 Stealth Loft - ID 23846-AU23-RMR BB H 1 2 10:47:49.36 36.8025 00:13:47 Yes
87 Refried Dreams - AZ 0700-AU23-PSC 318 xxx / Common 88 CHBC C 1 2 10:47:50.68 36.7857 00:13:48 Yes
88 Montejano's Loft - TN 3593-IF23-ORPC BB C 1 4 10:47:51.74 36.7721 00:13:49 Yes
89 Baptista - IL 24895-AU23-FOYS BB C 1 1 10:47:53.41 36.7506 00:13:51 Yes
90 Golden Loft - WA 0110-AU23-RIXW BB H 1 1 10:47:53.49 36.7496 00:13:51 Yes
91 Devore Loft - GA 0385-AU23-NA Sky scraper GRIZ H 1 4 10:47:54.03 36.7428 00:13:52 Yes
92 Barry & Shawnie - MI 50680-AU23-JEDD BB H 3 2 10:47:55.35 36.7258 00:13:53 Yes
93 Mari Loft - MA 0493-IF23-BRA BB H 1 2 10:47:55.82 36.7200 00:13:53 Yes
94 VMBY Loft - CA 0066-AU23-VMBY MELY H 1 2 10:47:56.04 36.7172 00:13:54 Yes
95 Raizen Loft - WA 44474-AU23-RAIZ BC C 1 1 10:47:56.56 36.7104 00:13:54 Yes
96 Rock Creek Classic - ID 0825-AU23-208 BB C 1 1 10:47:57.12 36.7034 00:13:55 Yes
97 Radd - OK 1319-AU23-CBS 153 BCWF C 1 1 10:48:00.22 36.6639 00:13:58 Yes
98 Shirey Loft - PA 0366-IF23-HBG BC H 1 1 10:48:01.57 36.6467 00:13:59 Yes
99 Rossi Loft LLC - WI 2144-AU23-KEN BB C 1 1 10:48:03.11 36.6271 00:14:01 Yes

There are 420 bird records

Note: These Race Results are unofficial and subject to change until verified by the Race Committee and declared final.